sensor_id;sensor_type;location;lat;lon;timestamp;P1;durP1;ratioP1;P2;durP2;ratioP2
51852;SDS011;37894;53.172;6.598;2022-12-10T00:01:12;61.13;;;25.67;;
51852;SDS011;37894;53.172;6.598;2022-12-10T00:03:42;59.90;;;25.80;;
51852;SDS011;37894;53.172;6.598;2022-12-10T00:06:10;64.13;;;26.73;;
51852;SDS011;37894;53.172;6.598;2022-12-10T00:08:37;68.03;;;27.40;;
51852;SDS011;37894;53.172;6.598;2022-12-10T00:11:04;58.08;;;25.33;;
51852;SDS011;37894;53.172;6.598;2022-12-10T00:13:32;61.70;;;25.42;;
51852;SDS011;37894;53.172;6.598;2022-12-10T00:15:59;64.03;;;26.30;;
51852;SDS011;37894;53.172;6.598;2022-12-10T00:18:25;62.38;;;25.75;;
51852;SDS011;37894;53.172;6.598;2022-12-10T00:20:51;56.60;;;24.77;;
51852;SDS011;37894;53.172;6.598;2022-12-10T00:23:16;66.03;;;26.77;;
51852;SDS011;37894;53.172;6.598;2022-12-10T00:25:42;67.78;;;27.55;;
51852;SDS011;37894;53.172;6.598;2022-12-10T00:28:08;63.30;;;26.33;;
51852;SDS011;37894;53.172;6.598;2022-12-10T00:30:34;65.78;;;27.20;;
51852;SDS011;37894;53.172;6.598;2022-12-10T00:32:59;61.47;;;27.50;;
51852;SDS011;37894;53.172;6.598;2022-12-10T00:35:25;57.45;;;24.27;;
51852;SDS011;37894;53.172;6.598;2022-12-10T00:37:51;63.03;;;26.40;;
51852;SDS011;37894;53.172;6.598;2022-12-10T00:40:17;65.47;;;27.58;;
51852;SDS011;37894;53.172;6.598;2022-12-10T00:42:43;67.68;;;26.48;;
51852;SDS011;37894;53.172;6.598;2022-12-10T00:45:09;59.72;;;27.30;;
51852;SDS011;37894;53.172;6.598;2022-12-10T00:47:35;66.78;;;27.52;;
51852;SDS011;37894;53.172;6.598;2022-12-10T00:50:01;69.15;;;26.80;;
51852;SDS011;37894;53.172;6.598;2022-12-10T00:52:27;64.03;;;27.48;;
51852;SDS011;37894;53.172;6.598;2022-12-10T00:54:52;62.85;;;26.42;;
51852;SDS011;37894;53.172;6.598;2022-12-10T00:57:18;59.42;;;26.27;;
51852;SDS011;37894;53.172;6.598;2022-12-10T00:59:44;69.63;;;27.92;;
51852;SDS011;37894;53.172;6.598;2022-12-10T01:02:09;64.15;;;27.65;;
51852;SDS011;37894;53.172;6.598;2022-12-10T01:04:35;67.22;;;28.70;;
51852;SDS011;37894;53.172;6.598;2022-12-10T01:07:01;72.32;;;29.00;;
51852;SDS011;37894;53.172;6.598;2022-12-10T01:09:27;63.92;;;26.90;;
51852;SDS011;37894;53.172;6.598;2022-12-10T01:11:55;68.65;;;28.50;;
51852;SDS011;37894;53.172;6.598;2022-12-10T01:14:29;67.15;;;28.73;;
51852;SDS011;37894;53.172;6.598;2022-12-10T01:16:57;64.95;;;29.05;;
51852;SDS011;37894;53.172;6.598;2022-12-10T01:19:24;66.63;;;27.35;;
51852;SDS011;37894;53.172;6.598;2022-12-10T01:21:50;69.53;;;27.45;;
51852;SDS011;37894;53.172;6.598;2022-12-10T01:24:18;69.75;;;28.08;;
51852;SDS011;37894;53.172;6.598;2022-12-10T01:26:44;71.35;;;29.35;;
51852;SDS011;37894;53.172;6.598;2022-12-10T01:29:11;70.25;;;30.45;;
51852;SDS011;37894;53.172;6.598;2022-12-10T01:31:39;65.80;;;27.20;;
51852;SDS011;37894;53.172;6.598;2022-12-10T01:34:06;70.53;;;29.45;;
51852;SDS011;37894;53.172;6.598;2022-12-10T01:36:38;72.55;;;29.35;;
51852;SDS011;37894;53.172;6.598;2022-12-10T01:39:05;78.65;;;29.55;;
51852;SDS011;37894;53.172;6.598;2022-12-10T01:41:33;77.97;;;29.40;;
51852;SDS011;37894;53.172;6.598;2022-12-10T01:46:39;76.22;;;30.00;;
51852;SDS011;37894;53.172;6.598;2022-12-10T01:49:12;80.00;;;31.60;;
51852;SDS011;37894;53.172;6.598;2022-12-10T01:54:08;76.93;;;30.70;;
51852;SDS011;37894;53.172;6.598;2022-12-10T01:56:37;81.53;;;30.50;;
51852;SDS011;37894;53.172;6.598;2022-12-10T01:59:05;70.32;;;29.85;;
51852;SDS011;37894;53.172;6.598;2022-12-10T02:01:41;75.90;;;29.80;;
51852;SDS011;37894;53.172;6.598;2022-12-10T02:06:53;74.25;;;31.02;;
51852;SDS011;37894;53.172;6.598;2022-12-10T02:12:12;82.03;;;30.70;;
51852;SDS011;37894;53.172;6.598;2022-12-10T02:20:14;77.05;;;31.42;;
51852;SDS011;37894;53.172;6.598;2022-12-10T02:25:14;71.05;;;28.95;;
51852;SDS011;37894;53.172;6.598;2022-12-10T02:27:51;77.40;;;31.73;;
51852;SDS011;37894;53.172;6.598;2022-12-10T02:30:22;80.20;;;31.25;;
51852;SDS011;37894;53.172;6.598;2022-12-10T02:32:48;76.07;;;31.10;;
51852;SDS011;37894;53.172;6.598;2022-12-10T02:35:22;81.28;;;30.83;;
51852;SDS011;37894;53.172;6.598;2022-12-10T02:37:53;76.85;;;29.27;;
51852;SDS011;37894;53.172;6.598;2022-12-10T02:40:23;77.35;;;31.45;;
51852;SDS011;37894;53.172;6.598;2022-12-10T02:42:54;80.90;;;31.73;;
51852;SDS011;37894;53.172;6.598;2022-12-10T02:45:21;86.25;;;33.08;;
51852;SDS011;37894;53.172;6.598;2022-12-10T02:47:50;78.90;;;30.90;;
51852;SDS011;37894;53.172;6.598;2022-12-10T02:50:18;91.85;;;34.53;;
51852;SDS011;37894;53.172;6.598;2022-12-10T02:52:46;77.95;;;30.92;;
51852;SDS011;37894;53.172;6.598;2022-12-10T02:55:12;83.72;;;32.97;;
51852;SDS011;37894;53.172;6.598;2022-12-10T03:00:14;83.93;;;33.92;;
51852;SDS011;37894;53.172;6.598;2022-12-10T03:02:49;89.40;;;33.90;;
51852;SDS011;37894;53.172;6.598;2022-12-10T03:08:12;88.00;;;32.40;;
51852;SDS011;37894;53.172;6.598;2022-12-10T03:13:16;87.68;;;34.58;;
51852;SDS011;37894;53.172;6.598;2022-12-10T03:15:45;88.80;;;33.58;;
51852;SDS011;37894;53.172;6.598;2022-12-10T03:18:12;86.68;;;33.92;;
51852;SDS011;37894;53.172;6.598;2022-12-10T03:20:42;89.38;;;35.03;;
51852;SDS011;37894;53.172;6.598;2022-12-10T03:23:12;86.05;;;34.55;;
51852;SDS011;37894;53.172;6.598;2022-12-10T03:25:42;83.80;;;31.98;;
51852;SDS011;37894;53.172;6.598;2022-12-10T03:28:09;80.88;;;33.63;;
51852;SDS011;37894;53.172;6.598;2022-12-10T03:30:36;86.85;;;35.15;;
51852;SDS011;37894;53.172;6.598;2022-12-10T03:33:04;87.75;;;34.30;;
51852;SDS011;37894;53.172;6.598;2022-12-10T03:35:30;84.45;;;33.67;;
51852;SDS011;37894;53.172;6.598;2022-12-10T03:37:56;85.45;;;32.70;;
51852;SDS011;37894;53.172;6.598;2022-12-10T03:40:22;82.25;;;33.78;;
51852;SDS011;37894;53.172;6.598;2022-12-10T03:42:49;87.10;;;34.55;;
51852;SDS011;37894;53.172;6.598;2022-12-10T03:45:15;89.22;;;33.78;;
51852;SDS011;37894;53.172;6.598;2022-12-10T03:47:41;86.53;;;34.13;;
51852;SDS011;37894;53.172;6.598;2022-12-10T03:50:07;84.85;;;32.78;;
51852;SDS011;37894;53.172;6.598;2022-12-10T03:52:33;80.35;;;31.33;;
51852;SDS011;37894;53.172;6.598;2022-12-10T03:54:59;80.78;;;33.63;;
51852;SDS011;37894;53.172;6.598;2022-12-10T03:57:25;74.85;;;30.83;;
51852;SDS011;37894;53.172;6.598;2022-12-10T03:59:51;75.50;;;32.05;;
51852;SDS011;37894;53.172;6.598;2022-12-10T04:02:17;82.97;;;32.83;;
51852;SDS011;37894;53.172;6.598;2022-12-10T04:04:43;82.20;;;32.85;;
51852;SDS011;37894;53.172;6.598;2022-12-10T04:07:09;84.85;;;32.35;;
51852;SDS011;37894;53.172;6.598;2022-12-10T04:09:35;77.72;;;30.20;;
51852;SDS011;37894;53.172;6.598;2022-12-10T04:12:00;72.95;;;30.60;;
51852;SDS011;37894;53.172;6.598;2022-12-10T04:14:26;75.40;;;30.40;;
51852;SDS011;37894;53.172;6.598;2022-12-10T04:17:11;81.53;;;32.17;;
51852;SDS011;37894;53.172;6.598;2022-12-10T04:19:37;80.63;;;30.67;;
51852;SDS011;37894;53.172;6.598;2022-12-10T04:22:03;71.15;;;31.20;;
51852;SDS011;37894;53.172;6.598;2022-12-10T04:24:48;67.88;;;30.92;;
51852;SDS011;37894;53.172;6.598;2022-12-10T04:27:52;69.75;;;30.00;;
51852;SDS011;37894;53.172;6.598;2022-12-10T04:30:18;79.00;;;31.80;;
51852;SDS011;37894;53.172;6.598;2022-12-10T04:32:44;75.55;;;30.77;;
51852;SDS011;37894;53.172;6.598;2022-12-10T04:35:09;75.90;;;29.90;;
51852;SDS011;37894;53.172;6.598;2022-12-10T04:37:35;73.18;;;30.83;;
51852;SDS011;37894;53.172;6.598;2022-12-10T04:40:01;80.68;;;31.20;;
51852;SDS011;37894;53.172;6.598;2022-12-10T04:42:27;75.03;;;32.15;;
51852;SDS011;37894;53.172;6.598;2022-12-10T04:44:53;76.00;;;32.40;;
51852;SDS011;37894;53.172;6.598;2022-12-10T04:47:19;80.78;;;32.47;;
51852;SDS011;37894;53.172;6.598;2022-12-10T04:49:45;71.88;;;30.88;;
51852;SDS011;37894;53.172;6.598;2022-12-10T04:52:12;77.40;;;31.73;;
51852;SDS011;37894;53.172;6.598;2022-12-10T04:54:39;71.50;;;29.10;;
51852;SDS011;37894;53.172;6.598;2022-12-10T04:57:06;78.38;;;30.15;;
51852;SDS011;37894;53.172;6.598;2022-12-10T04:59:31;90.10;;;31.92;;
51852;SDS011;37894;53.172;6.598;2022-12-10T05:01:57;82.65;;;33.58;;
51852;SDS011;37894;53.172;6.598;2022-12-10T05:04:23;93.72;;;34.75;;
51852;SDS011;37894;53.172;6.598;2022-12-10T05:06:49;85.22;;;33.30;;
51852;SDS011;37894;53.172;6.598;2022-12-10T05:09:15;101.45;;;35.80;;
51852;SDS011;37894;53.172;6.598;2022-12-10T05:11:41;99.30;;;34.45;;
51852;SDS011;37894;53.172;6.598;2022-12-10T05:14:10;86.78;;;32.95;;
51852;SDS011;37894;53.172;6.598;2022-12-10T05:16:37;99.90;;;35.67;;
51852;SDS011;37894;53.172;6.598;2022-12-10T05:19:03;88.13;;;33.20;;
51852;SDS011;37894;53.172;6.598;2022-12-10T05:21:29;95.97;;;34.42;;
51852;SDS011;37894;53.172;6.598;2022-12-10T05:24:14;93.55;;;34.78;;
51852;SDS011;37894;53.172;6.598;2022-12-10T05:26:41;100.68;;;36.10;;
51852;SDS011;37894;53.172;6.598;2022-12-10T05:29:07;104.32;;;37.10;;
51852;SDS011;37894;53.172;6.598;2022-12-10T05:31:33;101.28;;;34.60;;
51852;SDS011;37894;53.172;6.598;2022-12-10T05:33:59;107.90;;;37.15;;
51852;SDS011;37894;53.172;6.598;2022-12-10T05:36:27;100.07;;;36.53;;
51852;SDS011;37894;53.172;6.598;2022-12-10T05:38:55;106.25;;;37.17;;
51852;SDS011;37894;53.172;6.598;2022-12-10T05:41:23;95.55;;;36.45;;
51852;SDS011;37894;53.172;6.598;2022-12-10T05:43:50;111.85;;;37.72;;
51852;SDS011;37894;53.172;6.598;2022-12-10T05:46:22;96.60;;;37.35;;
51852;SDS011;37894;53.172;6.598;2022-12-10T05:48:50;109.20;;;37.40;;
51852;SDS011;37894;53.172;6.598;2022-12-10T05:51:20;98.82;;;36.60;;
51852;SDS011;37894;53.172;6.598;2022-12-10T05:53:48;110.40;;;36.80;;
51852;SDS011;37894;53.172;6.598;2022-12-10T05:56:16;114.25;;;37.17;;
51852;SDS011;37894;53.172;6.598;2022-12-10T05:58:46;112.38;;;36.42;;
51852;SDS011;37894;53.172;6.598;2022-12-10T06:01:20;121.55;;;38.38;;
51852;SDS011;37894;53.172;6.598;2022-12-10T06:03:47;112.35;;;40.10;;
51852;SDS011;37894;53.172;6.598;2022-12-10T06:06:19;112.68;;;39.95;;
51852;SDS011;37894;53.172;6.598;2022-12-10T06:08:49;121.20;;;41.85;;
51852;SDS011;37894;53.172;6.598;2022-12-10T06:11:15;129.80;;;40.17;;
51852;SDS011;37894;53.172;6.598;2022-12-10T06:13:41;121.47;;;38.50;;
51852;SDS011;37894;53.172;6.598;2022-12-10T06:16:09;118.07;;;39.85;;
51852;SDS011;37894;53.172;6.598;2022-12-10T06:18:37;122.47;;;38.60;;
51852;SDS011;37894;53.172;6.598;2022-12-10T06:21:07;111.30;;;38.83;;
51852;SDS011;37894;53.172;6.598;2022-12-10T06:23:38;127.93;;;39.55;;
51852;SDS011;37894;53.172;6.598;2022-12-10T06:26:05;136.23;;;41.40;;
51852;SDS011;37894;53.172;6.598;2022-12-10T06:28:36;147.68;;;40.70;;
51852;SDS011;37894;53.172;6.598;2022-12-10T06:31:02;125.18;;;38.47;;
51852;SDS011;37894;53.172;6.598;2022-12-10T06:33:28;147.00;;;42.05;;
51852;SDS011;37894;53.172;6.598;2022-12-10T06:35:54;164.82;;;41.90;;
51852;SDS011;37894;53.172;6.598;2022-12-10T06:38:20;173.70;;;43.05;;
51852;SDS011;37894;53.172;6.598;2022-12-10T06:40:46;127.72;;;41.78;;
51852;SDS011;37894;53.172;6.598;2022-12-10T06:43:12;139.02;;;41.17;;
51852;SDS011;37894;53.172;6.598;2022-12-10T06:45:41;139.43;;;40.38;;
51852;SDS011;37894;53.172;6.598;2022-12-10T06:48:08;131.90;;;40.03;;
51852;SDS011;37894;53.172;6.598;2022-12-10T06:50:34;121.88;;;42.05;;
51852;SDS011;37894;53.172;6.598;2022-12-10T06:53:00;122.18;;;39.58;;
51852;SDS011;37894;53.172;6.598;2022-12-10T06:55:25;124.45;;;39.67;;
51852;SDS011;37894;53.172;6.598;2022-12-10T06:57:51;123.50;;;40.00;;
51852;SDS011;37894;53.172;6.598;2022-12-10T07:00:18;119.88;;;38.88;;
51852;SDS011;37894;53.172;6.598;2022-12-10T07:02:44;154.13;;;40.63;;
51852;SDS011;37894;53.172;6.598;2022-12-10T07:05:10;128.90;;;39.58;;
51852;SDS011;37894;53.172;6.598;2022-12-10T07:07:36;124.13;;;39.35;;
51852;SDS011;37894;53.172;6.598;2022-12-10T07:10:02;170.63;;;40.78;;
51852;SDS011;37894;53.172;6.598;2022-12-10T07:12:29;160.57;;;38.60;;
51852;SDS011;37894;53.172;6.598;2022-12-10T07:14:55;141.50;;;38.35;;
51852;SDS011;37894;53.172;6.598;2022-12-10T07:17:21;129.98;;;39.08;;
51852;SDS011;37894;53.172;6.598;2022-12-10T07:19:46;229.27;;;42.33;;
51852;SDS011;37894;53.172;6.598;2022-12-10T07:22:12;164.15;;;40.83;;
51852;SDS011;37894;53.172;6.598;2022-12-10T07:24:38;158.25;;;39.42;;
51852;SDS011;37894;53.172;6.598;2022-12-10T07:27:04;128.30;;;38.40;;
51852;SDS011;37894;53.172;6.598;2022-12-10T07:29:31;151.38;;;39.50;;
51852;SDS011;37894;53.172;6.598;2022-12-10T07:31:56;141.93;;;41.63;;
51852;SDS011;37894;53.172;6.598;2022-12-10T07:34:22;137.85;;;41.58;;
51852;SDS011;37894;53.172;6.598;2022-12-10T07:36:48;137.18;;;40.28;;
51852;SDS011;37894;53.172;6.598;2022-12-10T07:39:14;279.98;;;43.05;;
51852;SDS011;37894;53.172;6.598;2022-12-10T07:41:52;150.32;;;38.33;;
51852;SDS011;37894;53.172;6.598;2022-12-10T07:44:18;198.70;;;39.75;;
51852;SDS011;37894;53.172;6.598;2022-12-10T07:46:49;209.88;;;39.25;;
51852;SDS011;37894;53.172;6.598;2022-12-10T07:49:15;323.00;;;43.75;;
51852;SDS011;37894;53.172;6.598;2022-12-10T07:51:48;179.60;;;39.60;;
51852;SDS011;37894;53.172;6.598;2022-12-10T07:54:15;130.48;;;36.15;;
51852;SDS011;37894;53.172;6.598;2022-12-10T07:56:42;131.77;;;37.90;;
51852;SDS011;37894;53.172;6.598;2022-12-10T07:59:08;136.20;;;36.63;;
51852;SDS011;37894;53.172;6.598;2022-12-10T08:01:35;152.05;;;41.00;;
51852;SDS011;37894;53.172;6.598;2022-12-10T08:04:00;165.43;;;41.47;;
51852;SDS011;37894;53.172;6.598;2022-12-10T08:06:27;162.52;;;42.53;;
51852;SDS011;37894;53.172;6.598;2022-12-10T08:08:53;154.23;;;40.80;;
51852;SDS011;37894;53.172;6.598;2022-12-10T08:11:20;165.52;;;40.08;;
51852;SDS011;37894;53.172;6.598;2022-12-10T08:13:46;149.65;;;38.72;;
51852;SDS011;37894;53.172;6.598;2022-12-10T08:16:17;153.05;;;36.63;;
51852;SDS011;37894;53.172;6.598;2022-12-10T08:18:45;139.60;;;38.42;;
51852;SDS011;37894;53.172;6.598;2022-12-10T08:21:13;204.23;;;41.53;;
51852;SDS011;37894;53.172;6.598;2022-12-10T08:23:40;153.50;;;41.08;;
51852;SDS011;37894;53.172;6.598;2022-12-10T08:26:09;181.02;;;38.17;;
51852;SDS011;37894;53.172;6.598;2022-12-10T08:28:36;223.50;;;40.22;;
51852;SDS011;37894;53.172;6.598;2022-12-10T08:31:02;169.50;;;39.88;;
51852;SDS011;37894;53.172;6.598;2022-12-10T08:33:28;216.20;;;40.15;;
51852;SDS011;37894;53.172;6.598;2022-12-10T08:35:58;210.63;;;41.28;;
51852;SDS011;37894;53.172;6.598;2022-12-10T08:38:24;153.15;;;38.65;;
51852;SDS011;37894;53.172;6.598;2022-12-10T08:40:50;140.63;;;37.95;;
51852;SDS011;37894;53.172;6.598;2022-12-10T08:43:16;176.13;;;38.70;;
51852;SDS011;37894;53.172;6.598;2022-12-10T08:45:42;142.02;;;38.25;;
51852;SDS011;37894;53.172;6.598;2022-12-10T08:48:08;108.35;;;35.38;;
51852;SDS011;37894;53.172;6.598;2022-12-10T08:50:34;124.57;;;36.42;;
51852;SDS011;37894;53.172;6.598;2022-12-10T08:53:01;120.85;;;34.75;;
51852;SDS011;37894;53.172;6.598;2022-12-10T08:55:26;175.07;;;38.60;;
51852;SDS011;37894;53.172;6.598;2022-12-10T08:57:52;118.03;;;35.53;;
51852;SDS011;37894;53.172;6.598;2022-12-10T09:00:18;170.70;;;36.50;;
51852;SDS011;37894;53.172;6.598;2022-12-10T09:02:44;126.15;;;36.97;;
51852;SDS011;37894;53.172;6.598;2022-12-10T09:05:10;194.65;;;42.45;;
51852;SDS011;37894;53.172;6.598;2022-12-10T09:07:37;135.48;;;37.70;;
51852;SDS011;37894;53.172;6.598;2022-12-10T09:10:02;161.18;;;38.65;;
51852;SDS011;37894;53.172;6.598;2022-12-10T09:12:28;130.30;;;35.92;;
51852;SDS011;37894;53.172;6.598;2022-12-10T09:14:54;144.15;;;41.22;;
51852;SDS011;37894;53.172;6.598;2022-12-10T09:17:21;123.90;;;36.60;;
51852;SDS011;37894;53.172;6.598;2022-12-10T09:19:46;152.52;;;38.72;;
51852;SDS011;37894;53.172;6.598;2022-12-10T09:22:12;132.65;;;37.67;;
51852;SDS011;37894;53.172;6.598;2022-12-10T09:24:38;120.60;;;35.75;;
51852;SDS011;37894;53.172;6.598;2022-12-10T09:27:04;135.63;;;37.17;;
51852;SDS011;37894;53.172;6.598;2022-12-10T09:29:30;148.13;;;36.85;;
51852;SDS011;37894;53.172;6.598;2022-12-10T09:31:56;157.55;;;40.45;;
51852;SDS011;37894;53.172;6.598;2022-12-10T09:34:21;112.80;;;34.42;;
51852;SDS011;37894;53.172;6.598;2022-12-10T09:36:47;159.38;;;39.22;;
51852;SDS011;37894;53.172;6.598;2022-12-10T09:39:13;120.22;;;37.10;;
51852;SDS011;37894;53.172;6.598;2022-12-10T09:41:52;155.43;;;39.45;;
51852;SDS011;37894;53.172;6.598;2022-12-10T09:46:52;136.77;;;39.20;;
51852;SDS011;37894;53.172;6.598;2022-12-10T09:49:26;129.02;;;39.08;;
51852;SDS011;37894;53.172;6.598;2022-12-10T09:52:02;145.43;;;40.58;;
51852;SDS011;37894;53.172;6.598;2022-12-10T09:54:31;141.27;;;37.47;;
51852;SDS011;37894;53.172;6.598;2022-12-10T09:56:59;129.60;;;39.88;;
51852;SDS011;37894;53.172;6.598;2022-12-10T09:59:31;153.70;;;38.55;;
51852;SDS011;37894;53.172;6.598;2022-12-10T10:04:42;129.38;;;36.28;;
51852;SDS011;37894;53.172;6.598;2022-12-10T10:07:09;120.75;;;37.40;;
51852;SDS011;37894;53.172;6.598;2022-12-10T10:09:46;109.13;;;33.83;;
51852;SDS011;37894;53.172;6.598;2022-12-10T10:12:13;129.55;;;36.15;;
51852;SDS011;37894;53.172;6.598;2022-12-10T10:14:40;98.63;;;34.75;;
51852;SDS011;37894;53.172;6.598;2022-12-10T10:17:21;107.18;;;35.47;;
51852;SDS011;37894;53.172;6.598;2022-12-10T10:19:58;109.28;;;34.97;;
51852;SDS011;37894;53.172;6.598;2022-12-10T10:22:24;103.13;;;36.13;;
51852;SDS011;37894;53.172;6.598;2022-12-10T10:24:51;103.82;;;34.38;;
51852;SDS011;37894;53.172;6.598;2022-12-10T10:27:22;105.85;;;35.10;;
51852;SDS011;37894;53.172;6.598;2022-12-10T10:29:53;108.32;;;35.42;;
51852;SDS011;37894;53.172;6.598;2022-12-10T10:32:21;105.80;;;36.70;;
51852;SDS011;37894;53.172;6.598;2022-12-10T10:34:54;91.53;;;33.88;;
51852;SDS011;37894;53.172;6.598;2022-12-10T10:40:05;102.93;;;35.13;;
51852;SDS011;37894;53.172;6.598;2022-12-10T10:42:38;108.32;;;36.80;;
51852;SDS011;37894;53.172;6.598;2022-12-10T10:45:10;112.72;;;34.92;;
51852;SDS011;37894;53.172;6.598;2022-12-10T10:48:15;100.40;;;35.80;;
51852;SDS011;37894;53.172;6.598;2022-12-10T10:50:53;102.35;;;36.30;;
51852;SDS011;37894;53.172;6.598;2022-12-10T11:01:48;83.10;;;31.58;;
51852;SDS011;37894;53.172;6.598;2022-12-10T11:04:15;90.82;;;30.52;;
51852;SDS011;37894;53.172;6.598;2022-12-10T11:06:42;87.28;;;32.60;;
51852;SDS011;37894;53.172;6.598;2022-12-10T11:09:24;88.68;;;32.42;;
51852;SDS011;37894;53.172;6.598;2022-12-10T11:11:57;80.25;;;30.67;;
51852;SDS011;37894;53.172;6.598;2022-12-10T11:14:46;86.60;;;32.97;;
51852;SDS011;37894;53.172;6.598;2022-12-10T11:17:17;68.32;;;26.70;;
51852;SDS011;37894;53.172;6.598;2022-12-10T11:19:53;82.43;;;28.80;;
51852;SDS011;37894;53.172;6.598;2022-12-10T11:22:28;78.43;;;30.10;;
51852;SDS011;37894;53.172;6.598;2022-12-10T11:24:56;73.50;;;28.67;;
51852;SDS011;37894;53.172;6.598;2022-12-10T11:38:00;63.90;;;26.88;;
51852;SDS011;37894;53.172;6.598;2022-12-10T11:43:13;78.85;;;29.90;;
51852;SDS011;37894;53.172;6.598;2022-12-10T11:49:05;71.13;;;30.15;;
51852;SDS011;37894;53.172;6.598;2022-12-10T11:51:57;66.95;;;28.20;;
51852;SDS011;37894;53.172;6.598;2022-12-10T11:54:52;63.25;;;26.95;;
51852;SDS011;37894;53.172;6.598;2022-12-10T11:57:49;68.63;;;26.50;;
51852;SDS011;37894;53.172;6.598;2022-12-10T12:02:49;68.97;;;28.77;;
51852;SDS011;37894;53.172;6.598;2022-12-10T12:08:43;63.30;;;26.98;;
51852;SDS011;37894;53.172;6.598;2022-12-10T12:14:20;65.65;;;25.58;;
51852;SDS011;37894;53.172;6.598;2022-12-10T12:17:33;53.88;;;23.70;;
51852;SDS011;37894;53.172;6.598;2022-12-10T12:19:43;62.35;;;24.70;;
51852;SDS011;37894;53.172;6.598;2022-12-10T12:22:24;64.10;;;25.58;;
51852;SDS011;37894;53.172;6.598;2022-12-10T12:25:06;65.63;;;27.02;;
51852;SDS011;37894;53.172;6.598;2022-12-10T12:27:43;66.75;;;27.13;;
51852;SDS011;37894;53.172;6.598;2022-12-10T12:30:14;68.13;;;25.45;;
51852;SDS011;37894;53.172;6.598;2022-12-10T12:38:01;67.65;;;23.77;;
51852;SDS011;37894;53.172;6.598;2022-12-10T12:40:52;64.57;;;24.95;;
51852;SDS011;37894;53.172;6.598;2022-12-10T12:43:28;61.25;;;23.77;;
51852;SDS011;37894;53.172;6.598;2022-12-10T12:45:59;60.67;;;24.33;;
51852;SDS011;37894;53.172;6.598;2022-12-10T12:51:09;55.45;;;23.90;;
51852;SDS011;37894;53.172;6.598;2022-12-10T12:53:51;67.65;;;25.70;;
51852;SDS011;37894;53.172;6.598;2022-12-10T12:59:58;65.10;;;24.55;;
51852;SDS011;37894;53.172;6.598;2022-12-10T13:04:51;66.32;;;27.17;;
51852;SDS011;37894;53.172;6.598;2022-12-10T13:09:48;66.60;;;25.42;;
51852;SDS011;37894;53.172;6.598;2022-12-10T13:12:18;68.68;;;26.38;;
51852;SDS011;37894;53.172;6.598;2022-12-10T13:14:56;71.72;;;26.45;;
51852;SDS011;37894;53.172;6.598;2022-12-10T13:17:39;71.97;;;23.10;;
51852;SDS011;37894;53.172;6.598;2022-12-10T13:22:54;71.85;;;25.55;;
51852;SDS011;37894;53.172;6.598;2022-12-10T13:26:16;64.93;;;24.55;;
51852;SDS011;37894;53.172;6.598;2022-12-10T13:31:08;66.80;;;24.35;;
51852;SDS011;37894;53.172;6.598;2022-12-10T13:33:53;72.50;;;24.67;;
51852;SDS011;37894;53.172;6.598;2022-12-10T13:45:16;94.65;;;34.22;;
51852;SDS011;37894;53.172;6.598;2022-12-10T13:47:49;93.88;;;33.45;;
51852;SDS011;37894;53.172;6.598;2022-12-10T14:01:16;79.85;;;29.38;;
51852;SDS011;37894;53.172;6.598;2022-12-10T14:06:54;73.25;;;26.83;;
51852;SDS011;37894;53.172;6.598;2022-12-10T14:09:30;75.32;;;26.73;;
51852;SDS011;37894;53.172;6.598;2022-12-10T14:12:04;67.60;;;26.95;;
51852;SDS011;37894;53.172;6.598;2022-12-10T14:14:39;71.00;;;25.88;;
51852;SDS011;37894;53.172;6.598;2022-12-10T14:17:12;71.68;;;26.35;;
51852;SDS011;37894;53.172;6.598;2022-12-10T14:19:50;71.30;;;28.13;;
51852;SDS011;37894;53.172;6.598;2022-12-10T14:22:22;68.50;;;25.05;;
51852;SDS011;37894;53.172;6.598;2022-12-10T14:24:50;79.05;;;26.45;;
51852;SDS011;37894;53.172;6.598;2022-12-10T14:27:23;69.00;;;24.40;;
51852;SDS011;37894;53.172;6.598;2022-12-10T14:30:01;66.50;;;25.73;;
51852;SDS011;37894;53.172;6.598;2022-12-10T14:32:46;75.07;;;27.20;;
51852;SDS011;37894;53.172;6.598;2022-12-10T14:35:14;84.25;;;26.55;;
51852;SDS011;37894;53.172;6.598;2022-12-10T14:37:47;82.32;;;28.30;;
51852;SDS011;37894;53.172;6.598;2022-12-10T14:43:13;87.57;;;26.83;;
51852;SDS011;37894;53.172;6.598;2022-12-10T14:45:47;82.90;;;28.05;;
51852;SDS011;37894;53.172;6.598;2022-12-10T14:48:16;85.22;;;27.77;;
51852;SDS011;37894;53.172;6.598;2022-12-10T14:50:43;75.85;;;26.55;;
51852;SDS011;37894;53.172;6.598;2022-12-10T14:53:14;90.13;;;30.02;;
51852;SDS011;37894;53.172;6.598;2022-12-10T14:55:43;99.57;;;28.90;;
51852;SDS011;37894;53.172;6.598;2022-12-10T14:58:16;97.82;;;30.35;;
51852;SDS011;37894;53.172;6.598;2022-12-10T15:00:47;115.20;;;33.53;;
51852;SDS011;37894;53.172;6.598;2022-12-10T15:03:19;94.10;;;30.95;;
51852;SDS011;37894;53.172;6.598;2022-12-10T15:05:56;149.38;;;31.45;;
51852;SDS011;37894;53.172;6.598;2022-12-10T15:08:24;88.88;;;28.30;;
51852;SDS011;37894;53.172;6.598;2022-12-10T15:10:52;93.97;;;30.60;;
51852;SDS011;37894;53.172;6.598;2022-12-10T15:13:28;94.15;;;30.55;;
51852;SDS011;37894;53.172;6.598;2022-12-10T15:15:55;93.47;;;30.80;;
51852;SDS011;37894;53.172;6.598;2022-12-10T15:18:26;95.13;;;31.58;;
51852;SDS011;37894;53.172;6.598;2022-12-10T15:21:09;96.25;;;31.83;;
51852;SDS011;37894;53.172;6.598;2022-12-10T15:23:41;116.97;;;32.78;;
51852;SDS011;37894;53.172;6.598;2022-12-10T15:26:17;105.75;;;30.90;;
51852;SDS011;37894;53.172;6.598;2022-12-10T15:28:47;110.45;;;31.90;;
51852;SDS011;37894;53.172;6.598;2022-12-10T15:34:15;118.95;;;33.72;;
51852;SDS011;37894;53.172;6.598;2022-12-10T15:36:51;110.50;;;31.13;;
51852;SDS011;37894;53.172;6.598;2022-12-10T15:39:24;100.57;;;31.10;;
51852;SDS011;37894;53.172;6.598;2022-12-10T15:41:55;116.28;;;33.42;;
51852;SDS011;37894;53.172;6.598;2022-12-10T15:44:40;110.35;;;30.77;;
51852;SDS011;37894;53.172;6.598;2022-12-10T15:47:25;114.50;;;37.10;;
51852;SDS011;37894;53.172;6.598;2022-12-10T15:49:53;116.93;;;31.55;;
51852;SDS011;37894;53.172;6.598;2022-12-10T15:54:50;106.45;;;30.52;;
51852;SDS011;37894;53.172;6.598;2022-12-10T15:59:43;121.68;;;32.10;;
51852;SDS011;37894;53.172;6.598;2022-12-10T16:02:18;115.90;;;30.85;;
51852;SDS011;37894;53.172;6.598;2022-12-10T16:05:00;109.88;;;31.05;;
51852;SDS011;37894;53.172;6.598;2022-12-10T16:07:27;141.68;;;33.17;;
51852;SDS011;37894;53.172;6.598;2022-12-10T16:09:53;128.27;;;30.88;;
51852;SDS011;37894;53.172;6.598;2022-12-10T16:12:19;126.55;;;32.70;;
51852;SDS011;37894;53.172;6.598;2022-12-10T16:14:49;131.18;;;38.45;;
51852;SDS011;37894;53.172;6.598;2022-12-10T16:17:17;150.55;;;51.20;;
51852;SDS011;37894;53.172;6.598;2022-12-10T16:19:44;158.65;;;40.72;;
51852;SDS011;37894;53.172;6.598;2022-12-10T16:22:10;139.75;;;41.15;;
51852;SDS011;37894;53.172;6.598;2022-12-10T16:24:36;121.40;;;34.75;;
51852;SDS011;37894;53.172;6.598;2022-12-10T16:27:04;138.63;;;36.88;;
51852;SDS011;37894;53.172;6.598;2022-12-10T16:29:36;137.10;;;32.80;;
51852;SDS011;37894;53.172;6.598;2022-12-10T16:32:02;139.07;;;35.75;;
51852;SDS011;37894;53.172;6.598;2022-12-10T16:34:28;124.07;;;35.72;;